sensor_id;sensor_type;location;lat;lon;timestamp;P1;durP1;ratioP1;P2;durP2;ratioP2
67156;SDS011;54086;50.126;8.710;2022-12-18T00:01:23;26.45;;;10.48;;
67156;SDS011;54086;50.126;8.710;2022-12-18T00:03:49;26.17;;;9.90;;
67156;SDS011;54086;50.126;8.710;2022-12-18T00:06:15;28.48;;;10.43;;
67156;SDS011;54086;50.126;8.710;2022-12-18T00:08:41;28.63;;;10.37;;
67156;SDS011;54086;50.126;8.710;2022-12-18T00:11:11;24.73;;;9.73;;
67156;SDS011;54086;50.126;8.710;2022-12-18T00:13:38;22.83;;;9.07;;
67156;SDS011;54086;50.126;8.710;2022-12-18T00:16:04;26.40;;;11.80;;
67156;SDS011;54086;50.126;8.710;2022-12-18T00:18:32;31.70;;;9.27;;
67156;SDS011;54086;50.126;8.710;2022-12-18T00:21:05;32.17;;;11.30;;
67156;SDS011;54086;50.126;8.710;2022-12-18T00:23:33;31.10;;;11.68;;
67156;SDS011;54086;50.126;8.710;2022-12-18T00:26:03;25.20;;;10.02;;
67156;SDS011;54086;50.126;8.710;2022-12-18T00:28:33;26.27;;;9.57;;
67156;SDS011;54086;50.126;8.710;2022-12-18T00:33:28;33.53;;;12.80;;
67156;SDS011;54086;50.126;8.710;2022-12-18T00:35:54;32.50;;;10.60;;
67156;SDS011;54086;50.126;8.710;2022-12-18T00:38:19;31.57;;;11.13;;
67156;SDS011;54086;50.126;8.710;2022-12-18T00:40:44;32.97;;;10.87;;
67156;SDS011;54086;50.126;8.710;2022-12-18T00:43:10;28.17;;;10.20;;
67156;SDS011;54086;50.126;8.710;2022-12-18T00:45:35;22.60;;;9.55;;
67156;SDS011;54086;50.126;8.710;2022-12-18T00:48:01;34.03;;;12.00;;
67156;SDS011;54086;50.126;8.710;2022-12-18T00:50:26;29.13;;;10.80;;
67156;SDS011;54086;50.126;8.710;2022-12-18T00:52:52;26.80;;;9.53;;
67156;SDS011;54086;50.126;8.710;2022-12-18T00:55:17;29.37;;;12.20;;
67156;SDS011;54086;50.126;8.710;2022-12-18T00:57:43;33.50;;;11.80;;
67156;SDS011;54086;50.126;8.710;2022-12-18T01:00:10;27.63;;;9.93;;
67156;SDS011;54086;50.126;8.710;2022-12-18T01:02:38;35.58;;;13.05;;
67156;SDS011;54086;50.126;8.710;2022-12-18T01:05:04;30.52;;;11.10;;
67156;SDS011;54086;50.126;8.710;2022-12-18T01:07:29;26.37;;;10.60;;
67156;SDS011;54086;50.126;8.710;2022-12-18T01:09:55;29.80;;;12.63;;
67156;SDS011;54086;50.126;8.710;2022-12-18T01:12:20;33.50;;;11.40;;
67156;SDS011;54086;50.126;8.710;2022-12-18T01:14:46;32.13;;;10.67;;
67156;SDS011;54086;50.126;8.710;2022-12-18T01:17:11;26.27;;;11.77;;
67156;SDS011;54086;50.126;8.710;2022-12-18T01:19:36;28.00;;;10.10;;
67156;SDS011;54086;50.126;8.710;2022-12-18T01:22:02;26.35;;;11.02;;
67156;SDS011;54086;50.126;8.710;2022-12-18T01:24:27;23.88;;;8.80;;
67156;SDS011;54086;50.126;8.710;2022-12-18T01:26:52;27.03;;;9.90;;
67156;SDS011;54086;50.126;8.710;2022-12-18T01:29:18;28.37;;;10.17;;
67156;SDS011;54086;50.126;8.710;2022-12-18T01:31:43;28.43;;;10.57;;
67156;SDS011;54086;50.126;8.710;2022-12-18T01:34:08;31.80;;;11.20;;
67156;SDS011;54086;50.126;8.710;2022-12-18T01:36:35;26.37;;;9.83;;
67156;SDS011;54086;50.126;8.710;2022-12-18T01:39:03;31.42;;;11.00;;
67156;SDS011;54086;50.126;8.710;2022-12-18T01:41:31;31.02;;;9.85;;
67156;SDS011;54086;50.126;8.710;2022-12-18T01:47:41;28.42;;;10.23;;
67156;SDS011;54086;50.126;8.710;2022-12-18T01:52:37;26.30;;;10.23;;
67156;SDS011;54086;50.126;8.710;2022-12-18T01:55:06;34.05;;;10.45;;
67156;SDS011;54086;50.126;8.710;2022-12-18T01:57:32;26.38;;;10.40;;
67156;SDS011;54086;50.126;8.710;2022-12-18T02:00:03;32.47;;;10.97;;
67156;SDS011;54086;50.126;8.710;2022-12-18T02:02:32;23.85;;;9.13;;
67156;SDS011;54086;50.126;8.710;2022-12-18T02:04:58;33.60;;;10.47;;
67156;SDS011;54086;50.126;8.710;2022-12-18T02:10:41;33.35;;;11.68;;
67156;SDS011;54086;50.126;8.710;2022-12-18T02:13:12;23.70;;;8.68;;
67156;SDS011;54086;50.126;8.710;2022-12-18T02:16:06;36.40;;;11.93;;
67156;SDS011;54086;50.126;8.710;2022-12-18T02:18:41;32.85;;;11.02;;
67156;SDS011;54086;50.126;8.710;2022-12-18T02:24:04;24.48;;;9.70;;
67156;SDS011;54086;50.126;8.710;2022-12-18T02:26:36;26.80;;;9.27;;
67156;SDS011;54086;50.126;8.710;2022-12-18T02:29:08;26.25;;;10.40;;
67156;SDS011;54086;50.126;8.710;2022-12-18T02:31:40;30.23;;;11.32;;
67156;SDS011;54086;50.126;8.710;2022-12-18T02:34:10;25.02;;;10.10;;
67156;SDS011;54086;50.126;8.710;2022-12-18T02:36:38;22.15;;;9.50;;
67156;SDS011;54086;50.126;8.710;2022-12-18T02:39:06;27.65;;;10.77;;
67156;SDS011;54086;50.126;8.710;2022-12-18T02:41:34;34.05;;;10.93;;
67156;SDS011;54086;50.126;8.710;2022-12-18T02:44:02;25.58;;;9.68;;
67156;SDS011;54086;50.126;8.710;2022-12-18T02:46:35;28.63;;;10.52;;
67156;SDS011;54086;50.126;8.710;2022-12-18T02:49:06;30.40;;;12.02;;
67156;SDS011;54086;50.126;8.710;2022-12-18T02:51:47;27.27;;;10.35;;
67156;SDS011;54086;50.126;8.710;2022-12-18T02:54:20;30.42;;;11.18;;
67156;SDS011;54086;50.126;8.710;2022-12-18T02:56:56;29.60;;;9.60;;
67156;SDS011;54086;50.126;8.710;2022-12-18T02:59:30;28.25;;;11.02;;
67156;SDS011;54086;50.126;8.710;2022-12-18T03:04:39;28.50;;;10.55;;
67156;SDS011;54086;50.126;8.710;2022-12-18T03:07:10;30.58;;;10.82;;
67156;SDS011;54086;50.126;8.710;2022-12-18T03:09:47;38.00;;;12.40;;
67156;SDS011;54086;50.126;8.710;2022-12-18T03:12:19;35.67;;;11.13;;
67156;SDS011;54086;50.126;8.710;2022-12-18T03:14:53;27.88;;;10.90;;
67156;SDS011;54086;50.126;8.710;2022-12-18T03:17:33;31.05;;;10.80;;
67156;SDS011;54086;50.126;8.710;2022-12-18T03:20:06;28.27;;;11.02;;
67156;SDS011;54086;50.126;8.710;2022-12-18T03:22:35;32.47;;;11.07;;
67156;SDS011;54086;50.126;8.710;2022-12-18T03:25:03;29.80;;;10.73;;
67156;SDS011;54086;50.126;8.710;2022-12-18T03:27:31;35.22;;;11.80;;
67156;SDS011;54086;50.126;8.710;2022-12-18T03:30:01;27.10;;;10.48;;
67156;SDS011;54086;50.126;8.710;2022-12-18T03:32:33;30.67;;;10.43;;
67156;SDS011;54086;50.126;8.710;2022-12-18T03:35:05;30.88;;;10.23;;
67156;SDS011;54086;50.126;8.710;2022-12-18T03:37:33;28.08;;;9.85;;
67156;SDS011;54086;50.126;8.710;2022-12-18T03:39:58;32.70;;;11.83;;
67156;SDS011;54086;50.126;8.710;2022-12-18T03:45:03;26.92;;;10.00;;
67156;SDS011;54086;50.126;8.710;2022-12-18T03:47:45;28.77;;;10.75;;
67156;SDS011;54086;50.126;8.710;2022-12-18T03:50:37;26.52;;;9.68;;
67156;SDS011;54086;50.126;8.710;2022-12-18T03:53:17;28.85;;;10.25;;
67156;SDS011;54086;50.126;8.710;2022-12-18T03:55:50;23.73;;;9.48;;
67156;SDS011;54086;50.126;8.710;2022-12-18T03:58:17;25.95;;;10.02;;
67156;SDS011;54086;50.126;8.710;2022-12-18T04:00:46;38.00;;;11.88;;
67156;SDS011;54086;50.126;8.710;2022-12-18T04:03:14;28.98;;;11.50;;
67156;SDS011;54086;50.126;8.710;2022-12-18T04:05:42;31.10;;;10.77;;
67156;SDS011;54086;50.126;8.710;2022-12-18T04:08:08;27.08;;;9.85;;
67156;SDS011;54086;50.126;8.710;2022-12-18T04:10:34;27.35;;;10.45;;
67156;SDS011;54086;50.126;8.710;2022-12-18T04:13:00;30.13;;;10.63;;
67156;SDS011;54086;50.126;8.710;2022-12-18T04:15:25;25.97;;;10.47;;
67156;SDS011;54086;50.126;8.710;2022-12-18T04:17:51;27.13;;;10.75;;
67156;SDS011;54086;50.126;8.710;2022-12-18T04:20:17;33.03;;;14.27;;
67156;SDS011;54086;50.126;8.710;2022-12-18T04:22:42;32.08;;;11.07;;
67156;SDS011;54086;50.126;8.710;2022-12-18T04:25:08;24.23;;;10.03;;
67156;SDS011;54086;50.126;8.710;2022-12-18T04:27:34;25.42;;;11.10;;
67156;SDS011;54086;50.126;8.710;2022-12-18T04:29:59;25.70;;;10.00;;
67156;SDS011;54086;50.126;8.710;2022-12-18T04:32:25;26.17;;;9.43;;
67156;SDS011;54086;50.126;8.710;2022-12-18T04:34:50;26.45;;;9.50;;
67156;SDS011;54086;50.126;8.710;2022-12-18T04:37:15;27.63;;;10.50;;
67156;SDS011;54086;50.126;8.710;2022-12-18T04:39:41;28.53;;;11.00;;
67156;SDS011;54086;50.126;8.710;2022-12-18T04:42:06;27.87;;;10.53;;
67156;SDS011;54086;50.126;8.710;2022-12-18T04:44:32;26.43;;;9.83;;
67156;SDS011;54086;50.126;8.710;2022-12-18T04:46:57;28.17;;;10.63;;
67156;SDS011;54086;50.126;8.710;2022-12-18T04:49:22;24.95;;;11.20;;
67156;SDS011;54086;50.126;8.710;2022-12-18T04:51:48;26.77;;;10.23;;
67156;SDS011;54086;50.126;8.710;2022-12-18T04:54:13;27.83;;;10.17;;
67156;SDS011;54086;50.126;8.710;2022-12-18T04:56:39;24.60;;;9.60;;
67156;SDS011;54086;50.126;8.710;2022-12-18T04:59:04;28.73;;;11.68;;
67156;SDS011;54086;50.126;8.710;2022-12-18T05:01:30;23.40;;;10.27;;
67156;SDS011;54086;50.126;8.710;2022-12-18T05:03:55;24.40;;;10.43;;
67156;SDS011;54086;50.126;8.710;2022-12-18T05:06:20;29.27;;;10.83;;
67156;SDS011;54086;50.126;8.710;2022-12-18T05:08:46;29.50;;;11.57;;
67156;SDS011;54086;50.126;8.710;2022-12-18T05:11:12;25.97;;;10.33;;
67156;SDS011;54086;50.126;8.710;2022-12-18T05:13:43;25.50;;;10.82;;
67156;SDS011;54086;50.126;8.710;2022-12-18T05:16:09;23.95;;;10.63;;
67156;SDS011;54086;50.126;8.710;2022-12-18T05:18:35;35.78;;;17.80;;
67156;SDS011;54086;50.126;8.710;2022-12-18T05:21:01;29.27;;;12.43;;
67156;SDS011;54086;50.126;8.710;2022-12-18T05:23:27;27.25;;;10.90;;
67156;SDS011;54086;50.126;8.710;2022-12-18T05:25:53;29.13;;;11.60;;
67156;SDS011;54086;50.126;8.710;2022-12-18T05:28:20;25.20;;;10.00;;
67156;SDS011;54086;50.126;8.710;2022-12-18T05:30:50;27.50;;;11.13;;
67156;SDS011;54086;50.126;8.710;2022-12-18T05:33:17;25.80;;;11.52;;
67156;SDS011;54086;50.126;8.710;2022-12-18T05:35:43;24.63;;;10.85;;
67156;SDS011;54086;50.126;8.710;2022-12-18T05:38:09;28.75;;;10.20;;
67156;SDS011;54086;50.126;8.710;2022-12-18T05:40:34;25.35;;;11.65;;
67156;SDS011;54086;50.126;8.710;2022-12-18T05:43:00;27.17;;;9.77;;
67156;SDS011;54086;50.126;8.710;2022-12-18T05:45:25;24.50;;;11.07;;
67156;SDS011;54086;50.126;8.710;2022-12-18T05:47:50;27.03;;;11.00;;
67156;SDS011;54086;50.126;8.710;2022-12-18T05:50:16;28.10;;;10.97;;
67156;SDS011;54086;50.126;8.710;2022-12-18T05:52:41;25.17;;;9.93;;
67156;SDS011;54086;50.126;8.710;2022-12-18T05:55:06;21.70;;;9.10;;
67156;SDS011;54086;50.126;8.710;2022-12-18T05:57:32;25.13;;;10.70;;
67156;SDS011;54086;50.126;8.710;2022-12-18T05:59:57;25.80;;;10.10;;
67156;SDS011;54086;50.126;8.710;2022-12-18T06:02:23;26.60;;;11.47;;
67156;SDS011;54086;50.126;8.710;2022-12-18T06:04:48;27.73;;;10.87;;
67156;SDS011;54086;50.126;8.710;2022-12-18T06:07:13;24.70;;;10.17;;
67156;SDS011;54086;50.126;8.710;2022-12-18T06:09:39;24.98;;;10.95;;
67156;SDS011;54086;50.126;8.710;2022-12-18T06:12:04;27.83;;;10.55;;
67156;SDS011;54086;50.126;8.710;2022-12-18T06:14:30;26.30;;;11.20;;
67156;SDS011;54086;50.126;8.710;2022-12-18T06:16:55;33.40;;;12.87;;
67156;SDS011;54086;50.126;8.710;2022-12-18T06:19:20;21.73;;;9.93;;
67156;SDS011;54086;50.126;8.710;2022-12-18T06:21:46;21.77;;;10.47;;
67156;SDS011;54086;50.126;8.710;2022-12-18T06:24:12;25.10;;;10.70;;
67156;SDS011;54086;50.126;8.710;2022-12-18T06:26:38;26.33;;;10.87;;
67156;SDS011;54086;50.126;8.710;2022-12-18T06:29:04;30.63;;;10.82;;
67156;SDS011;54086;50.126;8.710;2022-12-18T06:31:29;26.33;;;11.05;;
67156;SDS011;54086;50.126;8.710;2022-12-18T06:33:55;24.90;;;10.10;;
67156;SDS011;54086;50.126;8.710;2022-12-18T06:36:20;23.20;;;10.50;;
67156;SDS011;54086;50.126;8.710;2022-12-18T06:38:46;24.60;;;10.47;;
67156;SDS011;54086;50.126;8.710;2022-12-18T06:41:20;27.48;;;11.80;;
67156;SDS011;54086;50.126;8.710;2022-12-18T06:43:46;28.23;;;11.77;;
67156;SDS011;54086;50.126;8.710;2022-12-18T06:46:11;29.70;;;10.18;;
67156;SDS011;54086;50.126;8.710;2022-12-18T06:48:37;29.33;;;10.47;;
67156;SDS011;54086;50.126;8.710;2022-12-18T06:51:02;25.47;;;10.43;;
67156;SDS011;54086;50.126;8.710;2022-12-18T06:53:28;30.67;;;10.60;;
67156;SDS011;54086;50.126;8.710;2022-12-18T06:56:01;29.33;;;10.90;;
67156;SDS011;54086;50.126;8.710;2022-12-18T06:58:27;26.75;;;10.77;;
67156;SDS011;54086;50.126;8.710;2022-12-18T07:00:52;25.88;;;10.23;;
67156;SDS011;54086;50.126;8.710;2022-12-18T07:03:18;26.53;;;10.03;;
67156;SDS011;54086;50.126;8.710;2022-12-18T07:05:43;30.07;;;11.63;;
67156;SDS011;54086;50.126;8.710;2022-12-18T07:08:09;28.08;;;10.50;;
67156;SDS011;54086;50.126;8.710;2022-12-18T07:10:40;25.23;;;9.70;;
67156;SDS011;54086;50.126;8.710;2022-12-18T07:13:07;24.83;;;10.25;;
67156;SDS011;54086;50.126;8.710;2022-12-18T07:15:32;24.97;;;10.43;;
67156;SDS011;54086;50.126;8.710;2022-12-18T07:17:58;25.90;;;11.40;;
67156;SDS011;54086;50.126;8.710;2022-12-18T07:20:23;26.23;;;9.67;;
67156;SDS011;54086;50.126;8.710;2022-12-18T07:22:48;23.63;;;10.30;;
67156;SDS011;54086;50.126;8.710;2022-12-18T07:25:14;29.17;;;12.03;;
67156;SDS011;54086;50.126;8.710;2022-12-18T07:27:39;26.95;;;10.40;;
67156;SDS011;54086;50.126;8.710;2022-12-18T07:30:05;24.27;;;10.47;;
67156;SDS011;54086;50.126;8.710;2022-12-18T07:32:31;25.60;;;11.15;;
67156;SDS011;54086;50.126;8.710;2022-12-18T07:34:56;20.97;;;9.43;;
67156;SDS011;54086;50.126;8.710;2022-12-18T07:37:21;30.77;;;11.17;;
67156;SDS011;54086;50.126;8.710;2022-12-18T07:39:47;28.40;;;10.03;;
67156;SDS011;54086;50.126;8.710;2022-12-18T07:42:12;24.93;;;9.40;;
67156;SDS011;54086;50.126;8.710;2022-12-18T07:44:55;27.65;;;10.45;;
67156;SDS011;54086;50.126;8.710;2022-12-18T07:47:21;24.27;;;10.27;;
67156;SDS011;54086;50.126;8.710;2022-12-18T07:49:47;26.83;;;10.10;;
67156;SDS011;54086;50.126;8.710;2022-12-18T07:52:12;25.93;;;11.03;;
67156;SDS011;54086;50.126;8.710;2022-12-18T07:54:38;27.73;;;10.80;;
67156;SDS011;54086;50.126;8.710;2022-12-18T07:57:03;25.92;;;11.35;;
67156;SDS011;54086;50.126;8.710;2022-12-18T07:59:29;24.00;;;11.20;;
67156;SDS011;54086;50.126;8.710;2022-12-18T08:01:54;27.27;;;10.70;;
67156;SDS011;54086;50.126;8.710;2022-12-18T08:04:20;29.13;;;10.87;;
67156;SDS011;54086;50.126;8.710;2022-12-18T08:06:45;27.55;;;10.80;;
67156;SDS011;54086;50.126;8.710;2022-12-18T08:09:11;27.20;;;10.00;;
67156;SDS011;54086;50.126;8.710;2022-12-18T08:11:36;23.80;;;8.75;;
67156;SDS011;54086;50.126;8.710;2022-12-18T08:14:02;23.88;;;9.82;;
67156;SDS011;54086;50.126;8.710;2022-12-18T08:16:27;26.13;;;11.27;;
67156;SDS011;54086;50.126;8.710;2022-12-18T08:18:53;24.10;;;9.30;;
67156;SDS011;54086;50.126;8.710;2022-12-18T08:21:20;24.95;;;10.80;;
67156;SDS011;54086;50.126;8.710;2022-12-18T08:23:51;29.60;;;10.88;;
67156;SDS011;54086;50.126;8.710;2022-12-18T08:26:18;30.08;;;10.50;;
67156;SDS011;54086;50.126;8.710;2022-12-18T08:28:44;28.63;;;10.98;;
67156;SDS011;54086;50.126;8.710;2022-12-18T08:31:10;21.50;;;9.77;;
67156;SDS011;54086;50.126;8.710;2022-12-18T08:33:36;26.70;;;10.90;;
67156;SDS011;54086;50.126;8.710;2022-12-18T08:36:03;27.33;;;10.88;;
67156;SDS011;54086;50.126;8.710;2022-12-18T08:38:28;27.52;;;10.55;;
67156;SDS011;54086;50.126;8.710;2022-12-18T08:41:01;32.17;;;11.73;;
67156;SDS011;54086;50.126;8.710;2022-12-18T08:43:28;23.42;;;9.93;;
67156;SDS011;54086;50.126;8.710;2022-12-18T08:46:15;20.67;;;9.82;;
67156;SDS011;54086;50.126;8.710;2022-12-18T08:48:41;28.52;;;12.73;;
67156;SDS011;54086;50.126;8.710;2022-12-18T08:51:06;25.73;;;11.23;;
67156;SDS011;54086;50.126;8.710;2022-12-18T08:53:34;31.40;;;12.23;;
67156;SDS011;54086;50.126;8.710;2022-12-18T08:56:00;25.02;;;10.70;;
67156;SDS011;54086;50.126;8.710;2022-12-18T08:58:25;24.37;;;11.53;;
67156;SDS011;54086;50.126;8.710;2022-12-18T09:00:50;31.47;;;11.67;;
67156;SDS011;54086;50.126;8.710;2022-12-18T09:03:16;26.77;;;11.73;;
67156;SDS011;54086;50.126;8.710;2022-12-18T09:05:43;33.33;;;13.00;;
67156;SDS011;54086;50.126;8.710;2022-12-18T09:08:11;27.95;;;11.82;;
67156;SDS011;54086;50.126;8.710;2022-12-18T09:10:47;26.50;;;11.73;;
67156;SDS011;54086;50.126;8.710;2022-12-18T09:13:14;25.25;;;11.65;;
67156;SDS011;54086;50.126;8.710;2022-12-18T09:15:53;28.02;;;11.98;;
67156;SDS011;54086;50.126;8.710;2022-12-18T09:18:20;29.23;;;11.52;;
67156;SDS011;54086;50.126;8.710;2022-12-18T09:20:47;29.83;;;12.80;;
67156;SDS011;54086;50.126;8.710;2022-12-18T09:23:13;29.95;;;13.30;;
67156;SDS011;54086;50.126;8.710;2022-12-18T09:25:39;19.42;;;9.10;;
67156;SDS011;54086;50.126;8.710;2022-12-18T09:28:06;31.57;;;13.40;;
67156;SDS011;54086;50.126;8.710;2022-12-18T09:30:46;29.63;;;13.95;;
67156;SDS011;54086;50.126;8.710;2022-12-18T09:33:13;30.88;;;14.48;;
67156;SDS011;54086;50.126;8.710;2022-12-18T09:35:40;30.20;;;12.02;;
67156;SDS011;54086;50.126;8.710;2022-12-18T09:38:06;30.55;;;14.20;;
67156;SDS011;54086;50.126;8.710;2022-12-18T09:40:36;30.65;;;13.93;;
67156;SDS011;54086;50.126;8.710;2022-12-18T09:43:06;21.42;;;10.38;;
67156;SDS011;54086;50.126;8.710;2022-12-18T09:45:44;24.55;;;11.20;;
67156;SDS011;54086;50.126;8.710;2022-12-18T09:48:19;28.65;;;14.60;;
67156;SDS011;54086;50.126;8.710;2022-12-18T09:50:48;34.42;;;14.77;;
67156;SDS011;54086;50.126;8.710;2022-12-18T09:53:19;31.20;;;13.75;;
67156;SDS011;54086;50.126;8.710;2022-12-18T09:55:47;31.38;;;14.65;;
67156;SDS011;54086;50.126;8.710;2022-12-18T09:58:19;33.85;;;17.13;;
67156;SDS011;54086;50.126;8.710;2022-12-18T10:00:52;37.50;;;16.58;;
67156;SDS011;54086;50.126;8.710;2022-12-18T10:03:18;31.25;;;12.85;;
67156;SDS011;54086;50.126;8.710;2022-12-18T10:13:56;32.10;;;13.87;;
67156;SDS011;54086;50.126;8.710;2022-12-18T10:16:29;41.60;;;15.98;;
67156;SDS011;54086;50.126;8.710;2022-12-18T10:21:58;34.83;;;16.23;;
67156;SDS011;54086;50.126;8.710;2022-12-18T10:24:45;30.10;;;14.95;;
67156;SDS011;54086;50.126;8.710;2022-12-18T10:27:29;41.77;;;16.20;;
67156;SDS011;54086;50.126;8.710;2022-12-18T10:29:55;27.25;;;14.45;;
67156;SDS011;54086;50.126;8.710;2022-12-18T10:32:27;42.78;;;17.90;;
67156;SDS011;54086;50.126;8.710;2022-12-18T10:34:56;39.03;;;14.80;;
67156;SDS011;54086;50.126;8.710;2022-12-18T10:37:24;37.05;;;16.35;;
67156;SDS011;54086;50.126;8.710;2022-12-18T10:42:34;41.45;;;15.43;;
67156;SDS011;54086;50.126;8.710;2022-12-18T10:45:05;33.83;;;14.85;;
67156;SDS011;54086;50.126;8.710;2022-12-18T10:47:36;40.80;;;15.50;;
67156;SDS011;54086;50.126;8.710;2022-12-18T10:50:17;36.88;;;17.92;;
67156;SDS011;54086;50.126;8.710;2022-12-18T10:52:55;37.10;;;16.50;;
67156;SDS011;54086;50.126;8.710;2022-12-18T10:55:24;39.20;;;16.70;;
67156;SDS011;54086;50.126;8.710;2022-12-18T11:01:01;42.03;;;16.67;;
67156;SDS011;54086;50.126;8.710;2022-12-18T11:08:36;41.80;;;16.23;;
67156;SDS011;54086;50.126;8.710;2022-12-18T11:11:02;36.17;;;15.53;;
67156;SDS011;54086;50.126;8.710;2022-12-18T11:13:29;36.75;;;15.00;;
67156;SDS011;54086;50.126;8.710;2022-12-18T11:15:56;40.72;;;15.45;;
67156;SDS011;54086;50.126;8.710;2022-12-18T11:20:55;38.58;;;18.40;;
67156;SDS011;54086;50.126;8.710;2022-12-18T11:23:26;41.33;;;15.15;;
67156;SDS011;54086;50.126;8.710;2022-12-18T11:25:53;41.70;;;16.65;;
67156;SDS011;54086;50.126;8.710;2022-12-18T11:36:20;39.08;;;15.38;;
67156;SDS011;54086;50.126;8.710;2022-12-18T11:38:47;38.63;;;15.45;;
67156;SDS011;54086;50.126;8.710;2022-12-18T11:41:21;34.45;;;15.30;;
67156;SDS011;54086;50.126;8.710;2022-12-18T11:44:11;30.85;;;14.27;;
67156;SDS011;54086;50.126;8.710;2022-12-18T11:46:45;44.88;;;18.58;;
67156;SDS011;54086;50.126;8.710;2022-12-18T11:49:20;37.55;;;14.00;;
67156;SDS011;54086;50.126;8.710;2022-12-18T11:51:58;39.63;;;15.60;;
67156;SDS011;54086;50.126;8.710;2022-12-18T11:54:24;38.78;;;15.52;;
67156;SDS011;54086;50.126;8.710;2022-12-18T12:02:11;44.42;;;16.50;;
67156;SDS011;54086;50.126;8.710;2022-12-18T12:05:17;38.72;;;15.82;;
67156;SDS011;54086;50.126;8.710;2022-12-18T12:08:15;39.88;;;14.75;;
67156;SDS011;54086;50.126;8.710;2022-12-18T12:10:58;43.55;;;16.88;;
67156;SDS011;54086;50.126;8.710;2022-12-18T12:19:04;39.40;;;15.18;;
67156;SDS011;54086;50.126;8.710;2022-12-18T12:27:27;38.20;;;14.43;;
67156;SDS011;54086;50.126;8.710;2022-12-18T12:30:31;33.05;;;13.75;;
67156;SDS011;54086;50.126;8.710;2022-12-18T12:33:10;43.55;;;17.35;;
67156;SDS011;54086;50.126;8.710;2022-12-18T12:38:41;40.47;;;15.87;;
67156;SDS011;54086;50.126;8.710;2022-12-18T12:41:12;34.95;;;14.75;;
67156;SDS011;54086;50.126;8.710;2022-12-18T12:44:00;31.50;;;11.57;;
67156;SDS011;54086;50.126;8.710;2022-12-18T12:46:28;37.45;;;14.30;;
67156;SDS011;54086;50.126;8.710;2022-12-18T12:49:19;35.70;;;13.98;;
67156;SDS011;54086;50.126;8.710;2022-12-18T12:51:45;37.57;;;14.67;;
67156;SDS011;54086;50.126;8.710;2022-12-18T12:54:15;33.10;;;12.15;;
67156;SDS011;54086;50.126;8.710;2022-12-18T12:56:55;46.72;;;17.90;;
67156;SDS011;54086;50.126;8.710;2022-12-18T12:59:40;41.83;;;15.63;;
67156;SDS011;54086;50.126;8.710;2022-12-18T13:02:28;39.03;;;14.60;;
67156;SDS011;54086;50.126;8.710;2022-12-18T13:05:14;32.77;;;12.90;;
67156;SDS011;54086;50.126;8.710;2022-12-18T13:07:47;35.13;;;13.77;;
67156;SDS011;54086;50.126;8.710;2022-12-18T13:10:37;36.28;;;14.52;;
67156;SDS011;54086;50.126;8.710;2022-12-18T13:20:35;38.25;;;15.27;;
67156;SDS011;54086;50.126;8.710;2022-12-18T13:31:02;31.45;;;13.73;;
67156;SDS011;54086;50.126;8.710;2022-12-18T13:38:47;30.60;;;12.38;;
67156;SDS011;54086;50.126;8.710;2022-12-18T13:41:33;29.02;;;13.15;;
67156;SDS011;54086;50.126;8.710;2022-12-18T13:44:12;40.30;;;15.90;;
67156;SDS011;54086;50.126;8.710;2022-12-18T13:46:48;32.83;;;12.85;;
67156;SDS011;54086;50.126;8.710;2022-12-18T13:52:14;37.53;;;13.63;;
67156;SDS011;54086;50.126;8.710;2022-12-18T13:54:43;34.45;;;12.27;;
67156;SDS011;54086;50.126;8.710;2022-12-18T13:57:27;33.55;;;12.60;;
67156;SDS011;54086;50.126;8.710;2022-12-18T13:59:54;38.10;;;14.88;;
67156;SDS011;54086;50.126;8.710;2022-12-18T14:02:22;35.38;;;13.38;;
67156;SDS011;54086;50.126;8.710;2022-12-18T14:04:49;35.58;;;15.20;;
67156;SDS011;54086;50.126;8.710;2022-12-18T14:09:52;32.50;;;13.15;;
67156;SDS011;54086;50.126;8.710;2022-12-18T14:12:25;32.90;;;13.60;;
67156;SDS011;54086;50.126;8.710;2022-12-18T14:17:52;37.80;;;14.48;;
67156;SDS011;54086;50.126;8.710;2022-12-18T14:20:22;24.88;;;9.75;;
67156;SDS011;54086;50.126;8.710;2022-12-18T14:22:49;36.97;;;14.20;;
67156;SDS011;54086;50.126;8.710;2022-12-18T14:27:43;29.60;;;11.63;;
67156;SDS011;54086;50.126;8.710;2022-12-18T14:30:45;37.60;;;15.52;;
67156;SDS011;54086;50.126;8.710;2022-12-18T14:35:33;37.35;;;13.35;;
67156;SDS011;54086;50.126;8.710;2022-12-18T14:40:46;34.38;;;15.45;;
67156;SDS011;54086;50.126;8.710;2022-12-18T14:43:11;41.07;;;15.93;;
67156;SDS011;54086;50.126;8.710;2022-12-18T14:48:16;36.58;;;15.45;;
67156;SDS011;54086;50.126;8.710;2022-12-18T14:50:42;38.83;;;16.13;;
67156;SDS011;54086;50.126;8.710;2022-12-18T14:53:27;40.03;;;15.65;;
67156;SDS011;54086;50.126;8.710;2022-12-18T14:55:58;42.58;;;15.68;;
67156;SDS011;54086;50.126;8.710;2022-12-18T14:58:25;42.73;;;16.17;;
67156;SDS011;54086;50.126;8.710;2022-12-18T15:00:50;35.20;;;14.02;;
67156;SDS011;54086;50.126;8.710;2022-12-18T15:03:19;36.13;;;13.53;;
67156;SDS011;54086;50.126;8.710;2022-12-18T15:05:46;32.67;;;12.07;;
67156;SDS011;54086;50.126;8.710;2022-12-18T15:08:27;43.43;;;16.87;;
67156;SDS011;54086;50.126;8.710;2022-12-18T15:10:55;38.17;;;14.48;;
67156;SDS011;54086;50.126;8.710;2022-12-18T15:13:22;41.00;;;15.35;;
67156;SDS011;54086;50.126;8.710;2022-12-18T15:15:49;39.42;;;16.48;;
67156;SDS011;54086;50.126;8.710;2022-12-18T15:18:16;45.28;;;15.20;;
67156;SDS011;54086;50.126;8.710;2022-12-18T15:23:33;41.97;;;15.77;;
67156;SDS011;54086;50.126;8.710;2022-12-18T15:26:06;42.03;;;16.60;;
67156;SDS011;54086;50.126;8.710;2022-12-18T15:28:43;40.40;;;15.52;;
67156;SDS011;54086;50.126;8.710;2022-12-18T15:33:37;37.72;;;16.10;;
67156;SDS011;54086;50.126;8.710;2022-12-18T15:36:11;43.75;;;16.63;;
67156;SDS011;54086;50.126;8.710;2022-12-18T15:38:38;44.15;;;15.65;;
67156;SDS011;54086;50.126;8.710;2022-12-18T15:41:04;44.17;;;16.67;;
67156;SDS011;54086;50.126;8.710;2022-12-18T15:43:30;37.53;;;14.95;;
67156;SDS011;54086;50.126;8.710;2022-12-18T15:46:12;46.90;;;17.15;;
67156;SDS011;54086;50.126;8.710;2022-12-18T15:48:39;40.95;;;17.00;;
67156;SDS011;54086;50.126;8.710;2022-12-18T15:53:42;41.53;;;16.25;;
67156;SDS011;54086;50.126;8.710;2022-12-18T15:56:11;47.60;;;17.45;;
67156;SDS011;54086;50.126;8.710;2022-12-18T15:58:56;40.42;;;17.73;;
67156;SDS011;54086;50.126;8.710;2022-12-18T16:01:25;45.87;;;17.93;;
67156;SDS011;54086;50.126;8.710;2022-12-18T16:03:52;41.30;;;15.85;;
67156;SDS011;54086;50.126;8.710;2022-12-18T16:06:19;44.60;;;17.33;;
67156;SDS011;54086;50.126;8.710;2022-12-18T16:08:44;38.47;;;16.33;;
67156;SDS011;54086;50.126;8.710;2022-12-18T16:11:21;42.05;;;16.63;;
67156;SDS011;54086;50.126;8.710;2022-12-18T16:14:03;37.50;;;16.92;;
67156;SDS011;54086;50.126;8.710;2022-12-18T16:16:48;38.27;;;15.57;;
67156;SDS011;54086;50.126;8.710;2022-12-18T16:19:15;42.85;;;16.30;;
67156;SDS011;54086;50.126;8.710;2022-12-18T16:21:41;39.35;;;15.52;;
67156;SDS011;54086;50.126;8.710;2022-12-18T16:24:40;37.30;;;17.25;;
67156;SDS011;54086;50.126;8.710;2022-12-18T16:27:01;42.63;;;17.50;;
67156;SDS011;54086;50.126;8.710;2022-12-18T16:29:27;41.35;;;16.75;;
67156;SDS011;54086;50.126;8.710;2022-12-18T16:31:56;42.65;;;17.92;;
67156;SDS011;54086;50.126;8.710;2022-12-18T16:34:24;43.20;;;16.80;;
67156;SDS011;54086;50.126;8.710;2022-12-18T16:36:54;45.00;;;17.77;;